Time;durP1;ratioP1;P1;durP2;ratioP2;P2;SDS_P1;SDS_P2;PMS_P1;PMS_P2;Temp;Humidity;BMP_temperature;BMP_pressure;BME280_temperature;BME280_humidity;BME280_pressure;Samples;Min_cycle;Max_cycle;Signal;HPM_P1;HPM_P2
2022/01/07 00:01:54;;;;;;;23.30;8.10;;;;;;;0.48;100.00;100103.56;5015189;28;20033;-86
2022/01/07 00:04:20;;;;;;;22.52;8.57;;;;;;;0.42;100.00;100095.59;5018509;28;20032;-86
2022/01/07 00:06:45;;;;;;;18.90;7.93;;;;;;;0.42;100.00;100099.13;5018316;28;20117;-86
2022/01/07 00:09:11;;;;;;;17.73;7.97;;;;;;;0.44;100.00;100088.63;5017189;28;20024;-85
2022/01/07 00:11:36;;;;;;;23.13;8.90;;;;;;;0.43;100.00;100097.38;5013401;28;20056;-85
2022/01/07 00:14:05;;;;;;;21.92;7.32;;;;;;;0.45;100.00;100087.75;5015527;28;20029;-85
2022/01/07 00:16:30;;;;;;;21.30;8.32;;;;;;;0.38;100.00;100085.94;5014372;28;20092;-85
2022/01/07 00:18:58;;;;;;;18.63;8.90;;;;;;;0.39;100.00;100077.19;5016736;28;20022;-85
2022/01/07 00:21:24;;;;;;;22.95;8.80;;;;;;;0.39;100.00;100077.19;5016712;28;20022;-85
2022/01/07 00:23:50;;;;;;;24.52;8.45;;;;;;;0.37;100.00;100078.94;5017622;28;20383;-85
2022/01/07 00:26:15;;;;;;;23.40;8.70;;;;;;;0.38;100.00;100078.97;5016518;28;20386;-86
2022/01/07 00:28:41;;;;;;;22.50;8.75;;;;;;;0.31;100.00;100080.63;5015982;28;20034;-85
2022/01/07 00:31:06;;;;;;;23.17;8.68;;;;;;;0.33;100.00;100063.16;5015690;28;20030;-86
2022/01/07 00:33:32;;;;;;;18.33;7.78;;;;;;;0.40;100.00;100065.81;5015868;28;20049;-86
2022/01/07 00:36:06;;;;;;;19.42;8.50;;;;;;;0.36;100.00;100058.78;5017696;28;20026;-84
2022/01/07 00:38:33;;;;;;;22.73;8.18;;;;;;;0.33;100.00;100055.28;5017372;28;20041;-85
2022/01/07 00:40:58;;;;;;;23.50;8.07;;;;;;;0.35;100.00;100054.41;5016422;28;20026;-85
2022/01/07 00:43:24;;;;;;;23.08;8.20;;;;;;;0.38;100.00;100038.66;5015938;28;20018;-86
2022/01/07 00:45:49;;;;;;;18.30;7.60;;;;;;;0.38;100.00;100028.16;5015208;28;20026;-85
2022/01/07 00:48:14;;;;;;;21.52;7.93;;;;;;;0.34;100.00;100027.25;5014377;28;20391;-85
2022/01/07 00:50:41;;;;;;;21.67;7.60;;;;;;;0.31;100.00;100028.09;5018822;28;20041;-86
2022/01/07 00:53:06;;;;;;;22.75;7.72;;;;;;;0.35;100.00;100012.38;5019231;28;20022;-85
2022/01/07 00:55:32;;;;;;;17.10;6.93;;;;;;;0.38;100.00;100002.78;5020465;28;20517;-85
2022/01/07 00:57:57;;;;;;;18.33;7.97;;;;;;;0.40;100.00;100008.91;5019565;28;20022;-86
2022/01/07 01:00:27;;;;;;;19.98;7.68;;;;;;;0.42;100.00;100003.66;5019334;28;20064;-85
2022/01/07 01:02:55;;;;;;;22.38;7.72;;;;;;;0.41;100.00;99997.53;5020787;28;20025;-84
2022/01/07 01:05:21;;;;;;;17.83;7.50;;;;;;;0.42;100.00;100004.53;5020920;28;20021;-85
2022/01/07 01:07:46;;;;;;;21.67;7.55;;;;;;;0.42;100.00;99993.16;5021265;28;20095;-85
2022/01/07 01:10:13;;;;;;;21.23;6.85;;;;;;;0.41;100.00;99996.66;5020465;28;20034;-85
2022/01/07 01:12:41;;;;;;;15.30;6.05;;;;;;;0.49;100.00;99999.34;5020610;28;20089;-86
2022/01/07 01:15:10;;;;;;;17.42;6.97;;;;;;;0.48;100.00;99995.84;5020761;28;20030;-85
2022/01/07 01:17:36;;;;;;;19.92;7.43;;;;;;;0.48;100.00;99987.94;5020880;28;20390;-84
2022/01/07 01:20:05;;;;;;;17.70;6.03;;;;;;;0.47;100.00;99986.19;5020184;28;20113;-85
2022/01/07 01:22:30;;;;;;;14.55;6.20;;;;;;;0.46;100.00;99979.19;5016551;28;20028;-84
2022/01/07 01:24:55;;;;;;;16.52;6.38;;;;;;;0.46;100.00;99981.81;5016324;28;20029;-83
2022/01/07 01:27:21;;;;;;;15.80;5.90;;;;;;;0.51;100.00;99977.47;5017419;28;20072;-85
2022/01/07 01:29:46;;;;;;;15.98;6.22;;;;;;;0.55;100.00;99970.47;5019208;28;20056;-85
2022/01/07 01:32:12;;;;;;;18.83;6.60;;;;;;;0.59;100.00;99976.63;5019441;28;20030;-85
2022/01/07 01:34:37;;;;;;;18.90;6.45;;;;;;;0.55;100.00;99981.88;5018480;28;20033;-85
2022/01/07 01:37:03;;;;;;;15.80;6.47;;;;;;;0.55;100.00;99981.88;5020029;28;20462;-84
2022/01/07 01:39:31;;;;;;;23.13;6.40;;;;;;;0.61;100.00;99972.25;5018849;28;20022;-85
2022/01/07 01:41:57;;;;;;;14.95;6.68;;;;;;;0.60;100.00;99966.13;5018165;28;20125;-85
2022/01/07 01:44:22;;;;;;;19.70;5.95;;;;;;;0.60;100.00;99959.97;5019887;28;20453;-84
2022/01/07 01:46:48;;;;;;;19.98;6.40;;;;;;;0.55;100.00;99967.84;5020536;28;20513;-85
2022/01/07 01:49:13;;;;;;;15.55;6.00;;;;;;;0.56;100.00;99959.09;5018769;28;20084;-85
2022/01/07 01:51:39;;;;;;;12.20;5.82;;;;;;;0.59;100.00;99958.25;5018534;28;20021;-85
2022/01/07 01:54:07;;;;;;;13.00;6.03;;;;;;;0.59;100.00;99945.09;5018515;28;20096;-85
2022/01/07 01:56:33;;;;;;;17.70;5.82;;;;;;;0.60;100.00;99938.97;5017858;28;20060;-86
2022/01/07 01:58:58;;;;;;;15.15;5.70;;;;;;;0.61;100.00;99938.09;5014470;28;20113;-85
2022/01/07 02:01:24;;;;;;;15.20;5.63;;;;;;;0.60;100.00;99938.97;5017533;28;20083;-85
2022/01/07 02:03:49;;;;;;;17.52;6.13;;;;;;;0.59;100.00;99932.84;5028737;28;20050;-86
2022/01/07 02:06:17;;;;;;;15.80;5.40;;;;;;;0.63;100.00;99923.22;5027463;28;20049;-87
2022/01/07 02:09:02;;;;;;;13.60;5.18;;;;;;;0.63;100.00;99928.47;5027199;28;20036;-86
2022/01/07 02:11:28;;;;;;;11.80;5.00;;;;;;;0.65;100.00;99921.47;5026365;28;20442;-86
2022/01/07 02:13:56;;;;;;;10.20;5.28;;;;;;;0.64;100.00;99904.84;5027620;28;20026;-86
2022/01/07 02:16:25;;;;;;;14.27;5.75;;;;;;;0.63;100.00;99897.81;5029199;28;20018;-86
2022/01/07 02:18:50;;;;;;;16.40;5.18;;;;;;;0.64;100.00;99903.97;5029449;28;20026;-86
2022/01/07 02:21:15;;;;;;;16.98;5.57;;;;;;;0.66;100.00;99907.47;5028901;28;20030;-86
2022/01/07 02:23:41;;;;;;;17.10;5.75;;;;;;;0.68;100.00;99884.69;5028613;28;20483;-86
2022/01/07 02:26:07;;;;;;;16.60;5.07;;;;;;;0.67;100.00;99888.22;5028576;28;20530;-86
2022/01/07 02:28:34;;;;;;;13.80;5.20;;;;;;;0.65;100.00;99887.31;5028030;28;20044;-86
2022/01/07 02:30:59;;;;;;;16.45;5.50;;;;;;;0.68;100.00;99883.81;5029404;28;20026;-87
2022/01/07 02:33:25;;;;;;;10.65;5.00;;;;;;;0.63;100.00;99897.81;5024010;28;20028;-86
2022/01/07 02:35:50;;;;;;;12.57;5.15;;;;;;;0.62;100.00;99888.16;5028147;28;20052;-86
2022/01/07 02:38:19;;;;;;;12.75;5.25;;;;;;;0.68;100.00;99868.03;5028729;28;20054;-86
2022/01/07 02:40:44;;;;;;;13.52;4.72;;;;;;;0.70;100.00;99872.44;5028419;28;20018;-87
2022/01/07 02:43:10;;;;;;;11.18;5.20;;;;;;;0.69;100.00;99857.56;5027992;28;20060;-86
2022/01/07 02:45:36;;;;;;;12.77;5.05;;;;;;;0.69;100.00;99860.19;5028864;28;20018;-86
2022/01/07 02:48:03;;;;;;;15.73;5.07;;;;;;;0.71;100.00;99847.91;5027165;28;20041;-86
2022/01/07 02:50:38;;;;;;;12.05;4.72;;;;;;;0.74;100.00;99842.69;5028709;28;20021;-87
2022/01/07 02:53:07;;;;;;;13.10;4.75;;;;;;;0.77;100.00;99842.66;5028583;28;20032;-87
2022/01/07 02:55:33;;;;;;;15.60;5.32;;;;;;;0.73;100.00;99846.16;5028869;28;20029;-86
2022/01/07 02:57:58;;;;;;;16.38;5.32;;;;;;;0.74;100.00;99853.19;5027598;28;20032;-86
2022/01/07 03:00:25;;;;;;;14.70;5.22;;;;;;;0.74;100.00;99847.94;5026972;28;20036;-86
2022/01/07 03:02:51;;;;;;;14.60;5.43;;;;;;;0.75;100.00;99848.78;5027342;28;20028;-86
2022/01/07 03:05:18;;;;;;;14.15;5.30;;;;;;;0.71;100.00;99842.66;5028137;28;20022;-86
2022/01/07 03:07:47;;;;;;;16.13;5.32;;;;;;;0.75;100.00;99839.16;5028203;28;20029;-85
2022/01/07 03:10:13;;;;;;;15.75;5.78;;;;;;;0.72;100.00;99833.03;5019936;28;20101;-86
2022/01/07 03:12:40;;;;;;;17.48;5.85;;;;;;;0.70;100.00;99832.13;5028606;28;20030;-86
2022/01/07 03:15:08;;;;;;;12.77;5.78;;;;;;;0.67;100.00;99838.28;5027315;28;20079;-86
2022/01/07 03:17:33;;;;;;;13.13;4.93;;;;;;;0.68;100.00;99834.75;5028206;28;20033;-85
2022/01/07 03:19:59;;;;;;;14.52;5.10;;;;;;;0.61;100.00;99835.63;5029090;28;20021;-86
2022/01/07 03:22:24;;;;;;;11.95;5.47;;;;;;;0.60;100.00;99828.59;5028831;28;20029;-86
2022/01/07 03:24:49;;;;;;;12.65;5.47;;;;;;;0.55;100.00;99824.22;5027624;28;20105;-86
2022/01/07 03:27:15;;;;;;;15.15;5.68;;;;;;;0.52;100.00;99829.44;5026432;28;20036;-86
2022/01/07 03:29:40;;;;;;;15.63;5.40;;;;;;;0.48;100.00;99822.44;5029140;28;20057;-86
2022/01/07 03:32:06;;;;;;;16.85;5.47;;;;;;;0.49;100.00;99818.91;5027399;28;20018;-85
2022/01/07 03:34:31;;;;;;;13.60;5.57;;;;;;;0.37;100.00;99809.25;5027716;28;20113;-86
2022/01/07 03:36:57;;;;;;;15.05;5.60;;;;;;;0.27;100.00;99805.72;5028239;28;20080;-85
2022/01/07 03:39:22;;;;;;;15.02;5.43;;;;;;;0.24;100.00;99795.19;5026950;28;20444;-86
2022/01/07 03:41:48;;;;;;;13.52;5.90;;;;;;;0.18;100.00;99787.28;5027315;28;20001;-86
2022/01/07 03:44:13;;;;;;;12.65;5.28;;;;;;;0.13;100.00;99781.13;5028472;28;20159;-86
2022/01/07 03:47:15;;;;;;;15.45;6.30;;;;;;;0.06;100.00;99781.09;5023274;28;20474;-86
2022/01/07 03:49:41;;;;;;;16.58;5.88;;;;;;;0.06;100.00;99775.84;5027140;28;20030;-86
2022/01/07 03:52:06;;;;;;;15.35;6.03;;;;;;;-0.01;100.00;99767.06;5019116;28;20044;-86
2022/01/07 03:54:32;;;;;;;15.60;6.13;;;;;;;0.00;100.00;99760.09;5018389;28;20257;-86
2022/01/07 03:56:57;;;;;;;17.25;7.10;;;;;;;-0.07;100.00;99768.75;5017526;28;20046;-86
2022/01/07 03:59:22;;;;;;;15.15;6.45;;;;;;;-0.07;100.00;99755.66;5023296;28;20026;-86
2022/01/07 04:01:48;;;;;;;15.13;6.30;;;;;;;-0.12;100.00;99747.75;5023732;28;20076;-86
2022/01/07 04:04:13;;;;;;;14.63;7.28;;;;;;;-0.14;100.00;99747.75;5021473;28;20030;-85
2022/01/07 04:06:38;;;;;;;18.65;6.95;;;;;;;-0.15;100.00;99746.00;5019980;28;20018;-86
2022/01/07 04:09:04;;;;;;;15.48;7.07;;;;;;;-0.17;100.00;99750.34;5021587;28;20378;-85
2022/01/07 04:11:29;;;;;;;17.95;7.40;;;;;;;-0.17;100.00;99750.34;5026824;28;20034;-86
2022/01/07 04:13:54;;;;;;;20.50;7.50;;;;;;;-0.19;100.00;99738.97;5028036;28;20049;-85
2022/01/07 04:16:19;;;;;;;17.40;7.10;;;;;;;-0.23;100.00;99731.94;5028876;28;20025;-85
2022/01/07 04:18:45;;;;;;;23.17;7.97;;;;;;;-0.25;100.00;99721.44;5028821;28;20040;-84
2022/01/07 04:21:10;;;;;;;19.50;8.07;;;;;;;-0.23;100.00;99729.31;5019276;28;20026;-84
2022/01/07 04:23:36;;;;;;;20.27;7.97;;;;;;;-0.24;100.00;99717.09;5016513;28;20058;-84
2022/01/07 04:26:01;;;;;;;21.73;7.53;;;;;;;-0.25;100.00;99712.69;5032240;28;20049;-83
2022/01/07 04:28:26;;;;;;;16.63;7.38;;;;;;;-0.20;100.00;99716.22;5032878;28;20053;-83
2022/01/07 04:30:52;;;;;;;23.15;7.95;;;;;;;-0.23;100.00;99716.19;5032590;28;20053;-83
2022/01/07 04:33:25;;;;;;;18.63;7.75;;;;;;;-0.20;100.00;99710.97;5033133;28;20051;-83
2022/01/07 04:35:51;;;;;;;17.92;7.78;;;;;;;-0.20;100.00;99704.84;5032286;28;20037;-83
2022/01/07 04:38:16;;;;;;;20.30;8.15;;;;;;;-0.20;100.00;99710.97;5031416;28;20030;-83
2022/01/07 04:40:41;;;;;;;17.00;8.07;;;;;;;-0.19;100.00;99706.59;5036515;28;20030;-85
2022/01/07 04:43:07;;;;;;;18.20;7.78;;;;;;;-0.20;100.00;99705.72;5037964;28;20030;-84
2022/01/07 04:45:35;;;;;;;21.55;8.13;;;;;;;-0.20;100.00;99703.09;5037658;28;20017;-84
2022/01/07 04:48:04;;;;;;;17.20;8.32;;;;;;;-0.22;100.00;99696.97;5034279;28;20502;-84
2022/01/07 04:50:29;;;;;;;19.75;7.65;;;;;;;-0.19;100.00;99701.34;5033280;28;20033;-84
2022/01/07 04:52:59;;;;;;;23.38;8.18;;;;;;;-0.20;100.00;99703.09;5033324;28;20022;-84
2022/01/07 04:55:29;;;;;;;17.13;7.32;;;;;;;-0.20;100.00;99700.47;5032520;28;20026;-84
2022/01/07 04:57:58;;;;;;;21.83;8.25;;;;;;;-0.21;100.00;99709.22;5019169;28;20028;-82
2022/01/07 05:00:26;;;;;;;17.55;7.95;;;;;;;-0.13;100.00;99704.03;5019829;28;20626;-84
2022/01/07 05:03:12;;;;;;;20.15;7.57;;;;;;;-0.24;100.00;99703.97;5030036;28;20029;-85
2022/01/07 05:05:51;;;;;;;;;;;;;;;;;;;;;
2022/01/07 05:08:18;;;;;;;18.80;7.75;;;;;;;-0.25;100.00;99699.56;5031843;28;20029;-83
2022/01/07 05:10:46;;;;;;;20.90;8.15;;;;;;;-0.20;100.00;99699.59;5030426;28;20026;-84
2022/01/07 05:13:12;;;;;;;23.80;8.50;;;;;;;-0.26;100.00;99692.59;5032178;23;20514;-77
2022/01/07 05:15:37;;;;;;;18.35;8.13;;;;;;;-0.31;100.00;99686.44;5018269;28;20030;-77
2022/01/07 05:18:02;;;;;;;25.05;8.38;;;;;;;-0.30;100.00;99689.06;5018868;28;20033;-77
2022/01/07 05:20:28;;;;;;;17.92;8.70;;;;;;;-0.30;100.00;99698.66;5008513;28;20402;-78
2022/01/07 05:22:53;;;;;;;21.10;8.80;;;;;;;-0.22;100.00;99696.97;5018567;28;20172;-79
2022/01/07 05:25:20;;;;;;;22.92;9.18;;;;;;;-0.24;100.00;99685.59;5019041;28;20428;-78
2022/01/07 05:27:46;;;;;;;20.10;8.52;;;;;;;-0.28;100.00;99686.44;5019078;28;20022;-78
2022/01/07 05:30:13;;;;;;;21.92;8.05;;;;;;;-0.30;100.00;99682.94;5020779;28;20021;-79
2022/01/07 05:32:39;;;;;;;21.80;8.82;;;;;;;-0.30;100.00;99683.81;5020157;28;20479;-78
2022/01/07 05:35:05;;;;;;;17.42;9.13;;;;;;;-0.28;100.00;99681.19;5018856;28;20030;-78
2022/01/07 05:37:31;;;;;;;22.23;9.25;;;;;;;-0.30;100.00;99668.06;5017520;28;20045;-77
2022/01/07 05:39:57;;;;;;;19.80;9.13;;;;;;;-0.27;100.00;99673.34;5019151;28;20034;-78
2022/01/07 05:42:23;;;;;;;20.38;8.77;;;;;;;-0.28;100.00;99665.44;5019938;28;20026;-80
2022/01/07 05:44:48;;;;;;;21.50;9.43;;;;;;;-0.31;100.00;99654.94;5019050;28;20443;-77
2022/01/07 05:47:13;;;;;;;21.23;9.63;;;;;;;-0.31;100.00;99654.94;5016457;28;20022;-77
2022/01/07 05:49:39;;;;;;;18.10;9.15;;;;;;;-0.27;100.00;99656.72;5017199;28;20471;-77
2022/01/07 05:52:04;;;;;;;18.80;9.23;;;;;;;-0.33;100.00;99656.69;5017156;28;20510;-77
2022/01/07 05:54:30;;;;;;;25.10;9.75;;;;;;;-0.36;100.00;99647.91;5018602;28;20029;-78
2022/01/07 05:56:55;;;;;;;21.95;10.48;;;;;;;-0.36;100.00;99647.06;5020184;28;20030;-78
2022/01/07 05:59:20;;;;;;;25.92;10.77;;;;;;;-0.40;100.00;99638.28;5019256;28;20021;-78
2022/01/07 06:01:45;;;;;;;19.35;10.32;;;;;;;-0.43;100.00;99640.00;5019344;28;20054;-78
2022/01/07 06:04:11;;;;;;;21.10;10.07;;;;;;;-0.41;100.00;99631.28;5017523;28;20121;-77
2022/01/07 06:06:36;;;;;;;19.83;9.35;;;;;;;-0.39;100.00;99626.94;5019392;28;20068;-77
2022/01/07 06:09:02;;;;;;;21.38;9.38;;;;;;;-0.40;100.00;99627.78;5017092;28;20018;-77
2022/01/07 06:11:27;;;;;;;19.45;10.07;;;;;;;-0.39;100.00;99619.06;5016592;28;20045;-78
2022/01/07 06:13:52;;;;;;;19.35;9.18;;;;;;;-0.41;100.00;99612.06;5015957;28;20496;-77
2022/01/07 06:16:17;;;;;;;21.17;10.15;;;;;;;-0.40;100.00;99612.06;5015839;28;20029;-77
2022/01/07 06:18:53;;;;;;;19.58;9.43;;;;;;;-0.36;100.00;99605.09;5015159;28;20393;-78
2022/01/07 06:21:19;;;;;;;23.05;8.95;;;;;;;-0.38;100.00;99607.69;5017468;28;20026;-77
2022/01/07 06:23:44;;;;;;;22.52;10.02;;;;;;;-0.39;100.00;99598.09;5016728;28;20030;-77
2022/01/07 06:26:10;;;;;;;20.92;9.90;;;;;;;-0.39;100.00;99595.47;5015249;28;20038;-77
2022/01/07 06:28:35;;;;;;;20.35;9.60;;;;;;;-0.40;100.00;99603.31;5014651;28;20022;-76
2022/01/07 06:31:00;;;;;;;18.35;9.07;;;;;;;-0.52;100.00;99609.38;5015158;28;20435;-77
2022/01/07 06:33:25;;;;;;;24.60;10.00;;;;;;;-0.57;100.00;99602.34;5014603;28;20080;-77
2022/01/07 06:35:51;;;;;;;19.35;8.98;;;;;;;-0.54;100.00;99611.97;5012820;28;20542;-77
2022/01/07 06:38:16;;;;;;;16.30;9.13;;;;;;;-0.53;100.00;99603.25;5014260;28;20073;-77
2022/01/07 06:40:41;;;;;;;21.48;9.60;;;;;;;-0.51;100.00;99612.00;5013923;28;20022;-76
2022/01/07 06:43:06;;;;;;;22.90;10.18;;;;;;;-0.51;100.00;99611.13;5014292;28;20542;-78
2022/01/07 06:45:32;;;;;;;24.13;10.45;;;;;;;-0.50;100.00;99612.88;5013267;28;20022;-76
2022/01/07 06:47:57;;;;;;;18.67;10.13;;;;;;;-0.44;100.00;99612.03;5014517;28;20081;-77
2022/01/07 06:50:22;;;;;;;22.77;10.63;;;;;;;-0.44;100.00;99597.19;5013687;28;20026;-76
2022/01/07 06:52:48;;;;;;;25.73;11.35;;;;;;;-0.42;100.00;99605.94;5014023;28;20064;-77
2022/01/07 06:55:13;;;;;;;24.58;10.82;;;;;;;-0.39;100.00;99598.09;5014084;28;20501;-78
2022/01/07 06:57:38;;;;;;;27.23;10.85;;;;;;;-0.37;100.00;99592.81;5014901;28;20029;-77
2022/01/07 07:00:05;;;;;;;20.70;11.23;;;;;;;-0.29;100.00;99592.84;5014744;28;20068;-77
2022/01/07 07:02:30;;;;;;;21.05;10.18;;;;;;;-0.28;100.00;99587.59;5014405;28;20032;-76
2022/01/07 07:04:55;;;;;;;24.63;10.63;;;;;;;-0.26;100.00;99591.09;5014061;28;20410;-77
2022/01/07 07:07:21;;;;;;;23.02;11.00;;;;;;;-0.20;100.00;99602.50;5014769;28;20018;-77
2022/01/07 07:09:46;;;;;;;21.40;10.93;;;;;;;-0.23;100.00;99596.38;5015166;28;20021;-77
2022/01/07 07:12:12;;;;;;;21.65;10.95;;;;;;;-0.20;100.00;99606.00;5014706;28;20040;-77
2022/01/07 07:14:38;;;;;;;23.55;10.50;;;;;;;-0.20;100.00;99600.75;5014574;28;20080;-77
2022/01/07 07:17:04;;;;;;;19.73;9.82;;;;;;;-0.15;100.00;99599.00;5014605;28;20395;-77
2022/01/07 07:19:30;;;;;;;22.17;10.27;;;;;;;-0.14;100.00;99595.53;5014366;28;20022;-78
2022/01/07 07:21:55;;;;;;;24.50;10.57;;;;;;;-0.12;100.00;99592.91;5015103;28;20033;-77
2022/01/07 07:24:20;;;;;;;20.40;10.07;;;;;;;-0.13;100.00;99592.00;5016525;28;20017;-78
2022/01/07 07:26:46;;;;;;;21.40;10.55;;;;;;;-0.15;100.00;99593.75;5014443;28;20026;-77
2022/01/07 07:29:12;;;;;;;24.23;10.38;;;;;;;-0.10;100.00;99596.41;5012517;28;20368;-77
2022/01/07 07:31:39;;;;;;;22.77;9.35;;;;;;;-0.13;100.00;99592.00;5013401;28;20112;-77
2022/01/07 07:36:48;;;;;;;20.70;9.60;;;;;;;-0.10;100.00;99590.28;5013556;28;20032;-77
2022/01/07 07:39:15;;;;;;;19.30;9.55;;;;;;;-0.12;100.00;99585.91;5014780;28;20030;-76
2022/01/07 07:41:43;;;;;;;25.70;10.30;;;;;;;-0.10;100.00;99598.16;5013603;28;20491;-76
2022/01/07 07:44:09;;;;;;;20.23;9.95;;;;;;;-0.07;100.00;99599.03;5013503;28;20029;-77
2022/01/07 07:46:37;;;;;;;22.33;9.73;;;;;;;-0.09;100.00;99602.53;5013740;28;20080;-78
2022/01/07 07:49:05;;;;;;;19.55;9.27;;;;;;;-0.04;100.00;99596.44;5015565;28;20108;-77
2022/01/07 07:51:30;;;;;;;22.13;9.27;;;;;;;-0.04;100.00;99591.19;5015161;28;20022;-77
2022/01/07 07:53:57;;;;;;;20.23;9.75;;;;;;;-0.03;100.00;99595.56;5015186;28;20029;-77
2022/01/07 07:56:22;;;;;;;23.63;9.85;;;;;;;-0.03;100.00;99586.81;5013031;28;20022;-77
2022/01/07 07:58:49;;;;;;;20.45;9.35;;;;;;;0.01;100.00;99591.19;5017963;28;20026;-77
2022/01/07 08:01:15;;;;;;;20.35;10.43;;;;;;;0.03;100.00;99597.31;5018118;28;20095;-77
2022/01/07 08:03:41;;;;;;;24.67;11.13;;;;;;;0.08;100.00;99592.06;5018290;28;20034;-77
2022/01/07 08:06:06;;;;;;;16.52;9.63;;;;;;;0.09;100.00;99592.09;5018296;28;20375;-77
2022/01/07 08:08:32;;;;;;;18.48;9.50;;;;;;;0.14;100.00;99599.97;5017245;28;20386;-77
2022/01/07 08:11:01;;;;;;;17.95;9.05;;;;;;;0.18;100.00;99588.56;5016155;28;20455;-78
2022/01/07 08:16:10;;;;;;;15.52;9.23;;;;;;;0.21;100.00;99596.47;5018602;28;20088;-77
2022/01/07 08:18:38;;;;;;;19.10;9.27;;;;;;;0.19;100.00;99584.22;5017553;28;20034;-77
2022/01/07 08:21:06;;;;;;;22.23;10.13;;;;;;;0.19;100.00;99592.09;5019196;28;20463;-79
2022/01/07 08:23:32;;;;;;;16.05;9.75;;;;;;;0.21;100.00;99591.22;5017814;28;20021;-78
2022/01/07 08:25:58;;;;;;;15.90;9.77;;;;;;;0.21;100.00;99595.59;5019652;28;20152;-78
2022/01/07 08:28:28;;;;;;;17.80;9.38;;;;;;;0.19;100.00;99592.09;5019212;28;20398;-77
2022/01/07 08:31:01;;;;;;;19.95;10.00;;;;;;;0.20;100.00;99585.97;5016581;28;20583;-77
2022/01/07 08:36:18;;;;;;;18.65;10.15;;;;;;;0.26;100.00;99583.34;5016747;28;20041;-77
2022/01/07 08:38:44;;;;;;;18.63;10.02;;;;;;;0.29;100.00;99588.59;5016352;28;20032;-77
2022/01/07 08:41:10;;;;;;;16.67;9.38;;;;;;;0.29;100.00;99580.72;5014750;28;20022;-77
2022/01/07 08:43:37;;;;;;;20.67;9.65;;;;;;;0.30;100.00;99579.84;5016083;28;20171;-76
2022/01/07 08:46:04;;;;;;;17.10;9.82;;;;;;;0.36;100.00;99599.13;5015964;28;20033;-76
2022/01/07 08:48:30;;;;;;;19.50;9.63;;;;;;;0.38;100.00;99593.00;5015987;28;20069;-77
2022/01/07 08:50:56;;;;;;;14.05;9.23;;;;;;;0.35;100.00;99599.97;5015892;28;20573;-76
2022/01/07 08:53:21;;;;;;;15.90;8.95;;;;;;;0.33;100.00;99590.38;5014775;28;20491;-77
2022/01/07 08:55:47;;;;;;;19.73;8.85;;;;;;;0.35;100.00;99602.59;5014597;28;20133;-76
2022/01/07 08:58:13;;;;;;;14.65;9.18;;;;;;;0.36;100.00;99593.88;5014387;28;20080;-76
2022/01/07 09:00:38;;;;;;;18.35;9.18;;;;;;;0.38;100.00;99594.75;5015542;28;20053;-76
2022/01/07 09:03:04;;;;;;;18.40;9.25;;;;;;;0.38;100.00;99598.25;5015912;28;20030;-76
2022/01/07 09:05:29;;;;;;;14.05;9.05;;;;;;;0.43;100.00;99590.38;5015611;28;20394;-76
2022/01/07 09:07:54;;;;;;;16.52;9.80;;;;;;;0.41;100.00;99586.88;5015515;28;20509;-76
2022/01/07 09:10:20;;;;;;;19.60;10.50;;;;;;;0.38;100.00;99592.13;5015161;28;20040;-76
2022/01/07 09:12:46;;;;;;;19.20;10.13;;;;;;;0.41;100.00;99594.75;5015220;28;20454;-76
2022/01/07 09:15:12;;;;;;;20.13;11.18;;;;;;;0.47;100.00;99592.09;5014050;28;20092;-76
2022/01/07 09:17:38;;;;;;;19.83;11.57;;;;;;;0.49;100.00;99589.50;5015282;28;20442;-76
2022/01/07 09:20:05;;;;;;;22.48;11.77;;;;;;;0.61;100.00;99584.25;5014939;28;20026;-76
2022/01/07 09:22:31;;;;;;;19.83;12.02;;;;;;;0.59;100.00;99593.00;5015131;28;20017;-76
2022/01/07 09:24:56;;;;;;;20.20;12.45;;;;;;;0.60;100.00;99597.34;5015086;28;20113;-76
2022/01/07 09:27:22;;;;;;;23.13;13.15;;;;;;;0.65;100.00;99600.84;5013808;28;20041;-76
2022/01/07 09:29:47;;;;;;;23.20;12.73;;;;;;;0.72;100.00;99602.59;5014950;28;20045;-76
2022/01/07 09:32:12;;;;;;;20.95;12.57;;;;;;;0.71;100.00;99598.25;5015799;28;20037;-77
2022/01/07 09:34:38;;;;;;;25.60;12.98;;;;;;;0.74;100.00;99605.25;5015012;28;20112;-76
2022/01/07 09:37:04;;;;;;;23.48;12.23;;;;;;;0.77;100.00;99606.09;5015887;28;20025;-77
2022/01/07 09:39:30;;;;;;;20.08;12.25;;;;;;;0.80;100.00;99618.38;5016135;28;20022;-77
2022/01/07 09:41:55;;;;;;;21.23;12.70;;;;;;;0.83;100.00;99606.97;5014067;28;20025;-77
2022/01/07 09:44:21;;;;;;;21.10;12.43;;;;;;;0.84;100.00;99603.50;5015018;28;20049;-77
2022/01/07 09:46:46;;;;;;;22.65;13.32;;;;;;;0.87;100.00;99606.13;5015288;28;20025;-77
2022/01/07 09:49:12;;;;;;;21.45;13.27;;;;;;;0.86;100.00;99605.25;5013593;28;20390;-77
2022/01/07 09:51:39;;;;;;;21.60;14.38;;;;;;;0.86;100.00;99589.47;5013513;28;20065;-77
2022/01/07 09:54:05;;;;;;;25.63;13.82;;;;;;;0.91;100.00;99586.81;5013668;28;20037;-76
2022/01/07 09:56:30;;;;;;;25.13;14.23;;;;;;;0.93;100.00;99590.31;5013463;28;20022;-77
2022/01/07 09:58:55;;;;;;;25.70;13.05;;;;;;;0.96;100.00;99582.44;5013449;28;20026;-77
2022/01/07 10:01:23;;;;;;;22.20;12.65;;;;;;;0.93;100.00;99574.53;5014786;28;20091;-77
2022/01/07 10:03:48;;;;;;;25.25;14.13;;;;;;;0.95;100.00;99593.84;5014967;28;20025;-77
2022/01/07 10:06:23;;;;;;;20.95;13.38;;;;;;;0.94;100.00;99592.09;5014437;28;20033;-76
2022/01/07 10:09:00;;;;;;;22.98;13.57;;;;;;;0.97;100.00;99597.34;5014577;28;20499;-77
2022/01/07 10:11:26;;;;;;;25.60;13.98;;;;;;;1.02;100.00;99593.81;5014383;28;20033;-77
2022/01/07 10:14:21;;;;;;;23.73;13.80;;;;;;;1.06;100.00;99582.41;5014521;28;20018;-76
2022/01/07 10:16:58;;;;;;;27.58;14.25;;;;;;;1.11;100.00;99593.78;5014767;28;20079;-77
2022/01/07 10:19:42;;;;;;;26.75;15.60;;;;;;;1.15;100.00;99585.03;5014626;28;20030;-77
2022/01/07 10:22:13;;;;;;;26.83;15.43;;;;;;;1.17;100.00;99583.28;5012227;28;20033;-76
2022/01/07 10:24:53;;;;;;;26.38;15.27;;;;;;;1.22;100.00;99581.50;5014121;28;20026;-77
2022/01/07 10:27:18;;;;;;;29.08;15.98;;;;;;;1.25;100.00;99570.09;5014105;28;20022;-77
2022/01/07 10:29:45;;;;;;;27.13;16.02;;;;;;;1.26;100.00;99570.97;5012790;28;20084;-77
2022/01/07 10:32:24;;;;;;;29.08;16.67;;;;;;;1.36;100.00;99564.81;5012999;28;20030;-77
2022/01/07 10:35:11;;;;;;;29.20;17.25;;;;;;;1.32;100.00;99569.19;5013836;28;20498;-76
2022/01/07 10:37:46;;;;;;;29.02;16.52;;;;;;;1.33;100.00;99567.44;5014036;28;20064;-76
2022/01/07 10:40:40;;;;;;;28.38;16.88;;;;;;;1.34;100.00;99567.41;5013926;28;20026;-77
2022/01/07 10:43:33;;;;;;;27.00;14.63;;;;;;;1.37;100.00;99556.00;5012721;28;20030;-76
2022/01/07 10:46:11;;;;;;;26.08;15.25;;;;;;;1.38;100.00;99560.41;5011698;28;20045;-77
2022/01/07 10:48:42;;;;;;;26.67;15.98;;;;;;;1.38;100.00;99555.16;5014161;28;20026;-76
2022/01/07 10:51:10;;;;;;;31.35;16.40;;;;;;;1.43;100.00;99555.13;5012748;28;20553;-77
2022/01/07 10:53:37;;;;;;;28.20;16.52;;;;;;;1.45;100.00;99555.97;5014200;28;20025;-77
2022/01/07 10:56:08;;;;;;;29.08;16.17;;;;;;;1.44;100.00;99564.78;5013940;28;20556;-77
2022/01/07 10:58:43;;;;;;;30.10;16.35;;;;;;;1.50;100.00;99564.72;5012330;28;20033;-77
2022/01/07 11:01:25;;;;;;;33.47;17.35;;;;;;;1.48;100.00;99560.34;5013876;28;20064;-77
2022/01/07 11:03:53;;;;;;;32.63;16.58;;;;;;;1.49;100.00;99554.22;5013730;28;20022;-76
2022/01/07 11:06:20;;;;;;;29.27;16.67;;;;;;;1.50;100.00;99538.41;5013733;28;20030;-77
2022/01/07 11:08:48;;;;;;;29.58;16.95;;;;;;;1.55;100.00;99541.03;5013388;28;20064;-76
2022/01/07 11:11:13;;;;;;;29.48;16.63;;;;;;;1.57;100.00;99536.66;5012087;28;20029;-76
2022/01/07 11:13:43;;;;;;;28.20;15.93;;;;;;;1.59;100.00;99534.88;5046810;22;20076;-85
2022/01/07 11:16:11;;;;;;;29.35;16.40;;;;;;;1.58;100.00;99530.50;4999372;28;20036;-84
2022/01/07 11:19:05;;;;;;;28.38;15.73;;;;;;;1.62;100.00;99529.59;5000285;28;20022;-84
2022/01/07 11:21:49;;;;;;;;;;;;;;;;;;;;;
2022/01/07 11:24:41;;;;;;;28.08;15.50;;;;;;;1.62;100.00;99534.88;5018283;28;20447;-85
2022/01/07 11:27:21;;;;;;;30.83;15.73;;;;;;;1.65;100.00;99524.31;5017660;28;20025;-83
2022/01/07 11:30:23;;;;;;;33.22;16.15;;;;;;;1.65;100.00;99529.56;5017105;28;20088;-84
2022/01/07 11:33:00;;;;;;;28.05;16.30;;;;;;;1.63;100.00;99526.06;4999206;28;20410;-85